KTIW/TIW METAR and TAF weather

Enter ICAO airport designator
Station Type Date Time Source
KTIW METAR 2019/05/21 19:53 UTC NOAA

KTIW 211953Z 02012G17KT 10SM BKN019 BKN026 BKN070 16/08 A2976 RMK AO2 SLP077 T01560078


Station Type Date Time Source
KTIW Decoded METAR 2019/05/21 19:53 UTC NOAA

Tacoma, Tacoma Narrows Airport, WA, United States (KTIW) 47-16-03N 122-34-34W 96M
May 21, 2019 - 03:53 PM EDT / 2019.05.21 1953 UTC
Wind: from the NNE (020 degrees) at 14 MPH (12 KT) gusting to 20 MPH (17 KT):0
Visibility: 10 mile(s):0
Sky conditions: mostly cloudy
Temperature: 60.1 F (15.6 C)
Dew Point: 46.0 F (7.8 C)
Relative Humidity: 59%
Pressure (altimeter): 29.76 in. Hg (1007 hPa)
ob: KTIW 211953Z 02012G17KT 10SM BKN019 BKN026 BKN070 16/08 A2976 RMK AO2 SLP077 T01560078
cycle: 20

Station Type Date Time Source
KTIW TAF UTC NOAA

Error!

Example: see airport list